首页
METAR-TAF:

METAR-TAF

机场 :

Offutt Air Force Base

奥马哈, 內布拉斯加州, 美国

纬度: 41-07N, 经度: 095-54W, 海拔: 319米

当前天气观测

该预报发布于20分钟前的02:56 UTC
风速6节,风向西北
温度 4°C
湿度 70%
气压 1019 hPa
能見度: 16.1公里
多云层高于5000英尺
多云层高于6500英尺

METAR: KOFF 140256Z 31006KT 10SM BKN050 BKN065 04/M01 A3010 RMK AO2A SLP209 RVRNO $

时间: 21:16 (03:16 UTC)

预报

该预报发布于1小时和16分钟前的02:00 UTC
预报有效从14日的 02点(UTC)到 15日的 08点(UTC)
风速9节,风向北转西北
能见度10公里或以上
少量云层高于2000英尺
多云层高于4000英尺
成为
从 14日的 11点(UTC)到 14日的 12点(UTC)
风速12节,风向西北,有时为18节阵风
能见度10公里或以上
散云层高于2000英尺
散云层高于6000英尺
成为
从 14日的 19点(UTC)到 14日的 20点(UTC)
风速6节,风向多变
能见度10公里或以上
少量云层高于4000英尺

TAF: KOFF 140200Z 1402/1508 33009KT 9999 FEW020 BKN040 QNH3007INS BECMG 1411/1412 32012G18KT 9999 SCT020 SCT060 QNH3013INS BECMG 1419/1420 VRB06KT 9999 FEW040 QNH3030INS TX04/1422Z TNM06/1412Z

超过4000个机场的气象观测和天气预报(METAR&TAF报告)。

可查询的气象台以黄色和红色小点在地图上表示。

将鼠标移到小点上方,可查看气象台名称。

然后点击查看天气观测和预报。

如需切换地图:点击带黑十字的绿色按钮放大地图;点击带横线的绿色按钮缩小地图;或者点击绿色箭头查看邻近地区的地图。


METAR-TAF: